createdAt,value
2019-02-02T00:02:28.747Z,60.08
2019-02-02T00:04:59.702Z,59.40
2019-02-02T00:07:29.777Z,61.35
2019-02-02T00:09:59.733Z,62.53
2019-02-02T00:12:29.751Z,58.85
2019-02-02T00:14:59.891Z,64.58
2019-02-02T00:17:29.918Z,62.27
2019-02-02T00:19:59.979Z,63.45
2019-02-02T00:22:30.077Z,56.33
2019-02-02T00:25:00.194Z,55.52
2019-02-02T00:27:40.826Z,62.17
2019-02-02T00:30:02.055Z,59.00
2019-02-02T00:32:33.719Z,66.00
2019-02-02T00:35:12.835Z,61.50
2019-02-02T00:37:40.047Z,61.92
2019-02-02T00:40:10.181Z,61.18
2019-02-02T00:42:40.259Z,58.63
2019-02-02T00:45:11.228Z,59.08
2019-02-02T00:47:41.191Z,63.75
2019-02-02T00:50:11.377Z,59.03
2019-02-02T00:52:41.375Z,61.10
2019-02-02T00:55:11.498Z,62.48
2019-02-02T00:57:53.140Z,64.35
2019-02-02T01:00:14.911Z,63.90
2019-02-02T01:02:44.776Z,58.73
2019-02-02T01:05:15.716Z,59.85
2019-02-02T01:07:45.527Z,60.10
2019-02-02T01:10:21.549Z,62.15
2019-02-02T01:12:51.449Z,59.45
2019-02-02T01:15:21.486Z,52.38
2019-02-02T01:17:51.395Z,62.03
2019-02-02T01:20:24.180Z,61.65
2019-02-02T01:22:54.153Z,62.90
2019-02-02T01:25:24.605Z,60.03
2019-02-02T01:28:04.776Z,60.23
2019-02-02T01:30:29.153Z,58.13
2019-02-02T01:32:59.003Z,57.27
2019-02-02T01:35:28.970Z,60.10
2019-02-02T01:37:58.884Z,58.75
2019-02-02T01:40:28.874Z,57.70
2019-02-02T01:42:58.814Z,60.30
2019-02-02T01:45:28.829Z,60.40
2019-02-02T01:47:58.791Z,59.73
2019-02-02T01:50:29.661Z,60.83
2019-02-02T01:52:59.599Z,64.22
2019-02-02T01:55:29.410Z,58.60
2019-02-02T01:57:59.349Z,58.42
2019-02-02T02:00:30.543Z,64.42
2019-02-02T02:03:00.499Z,60.12
2019-02-02T02:05:30.384Z,61.05
2019-02-02T02:08:00.376Z,57.60
2019-02-02T02:10:30.261Z,65.20
2019-02-02T02:13:00.124Z,58.92
2019-02-02T02:15:30.070Z,64.15
2019-02-02T02:18:00.040Z,61.25
2019-02-02T02:20:29.904Z,65.87
2019-02-02T02:22:59.833Z,59.70
2019-02-02T02:25:29.642Z,59.53
2019-02-02T02:27:59.630Z,56.90
2019-02-02T02:30:29.581Z,63.38
2019-02-02T02:32:59.467Z,61.75
2019-02-02T02:35:29.461Z,57.78
2019-02-02T02:37:59.482Z,69.32
2019-02-02T02:40:29.332Z,69.00
2019-02-02T02:42:59.394Z,65.50
2019-02-02T02:45:29.471Z,56.28
2019-02-02T02:47:59.562Z,65.85
2019-02-02T02:50:29.548Z,62.03
2019-02-02T02:52:59.569Z,63.75
2019-02-02T02:55:29.577Z,62.15
2019-02-02T02:57:59.594Z,61.85
2019-02-02T03:00:29.735Z,59.65
2019-02-02T03:03:01.777Z,64.55
2019-02-02T03:05:31.616Z,59.93
2019-02-02T03:08:01.608Z,63.42
2019-02-02T03:10:31.625Z,66.02
2019-02-02T03:13:01.769Z,62.73
2019-02-02T03:15:32.198Z,63.80
2019-02-02T03:18:02.194Z,66.90
2019-02-02T03:20:32.312Z,62.08
2019-02-02T03:23:02.414Z,62.55
2019-02-02T03:25:32.558Z,62.10
2019-02-02T03:28:02.657Z,63.60
2019-02-02T03:30:32.692Z,63.60
2019-02-02T03:33:02.643Z,66.57
2019-02-02T03:35:32.756Z,63.02
2019-02-02T03:38:02.722Z,62.35
2019-02-02T03:40:33.871Z,62.85
2019-02-02T03:43:03.802Z,67.90
2019-02-02T03:45:33.646Z,57.45
2019-02-02T03:48:03.492Z,55.60
2019-02-02T03:50:33.454Z,64.35
2019-02-02T03:53:03.504Z,68.83
2019-02-02T03:55:33.425Z,63.25
2019-02-02T03:58:03.350Z,68.78
2019-02-02T04:00:33.358Z,67.60
2019-02-02T04:03:05.461Z,64.03
2019-02-02T04:05:35.459Z,65.55
2019-02-02T04:08:05.407Z,59.35
2019-02-02T04:10:35.366Z,61.68
2019-02-02T04:13:06.280Z,62.70
2019-02-02T04:15:36.520Z,60.98
2019-02-02T04:18:06.512Z,66.17
2019-02-02T04:20:36.406Z,65.03
2019-02-02T04:23:06.393Z,65.28
2019-02-02T04:25:36.418Z,70.17
2019-02-02T04:28:06.495Z,74.90
2019-02-02T04:30:36.533Z,71.87
2019-02-02T04:33:06.544Z,69.10
2019-02-02T04:35:36.538Z,62.05
2019-02-02T04:38:06.545Z,64.30
2019-02-02T04:40:36.683Z,66.17
2019-02-02T04:43:06.717Z,63.52
2019-02-02T04:45:37.999Z,60.50
2019-02-02T04:48:08.081Z,67.47
2019-02-02T04:50:38.307Z,66.17
2019-02-02T04:53:08.383Z,70.65
2019-02-02T04:55:38.339Z,68.92
2019-02-02T04:58:08.436Z,69.60
2019-02-02T05:00:38.439Z,67.17
2019-02-02T05:03:09.381Z,62.50
2019-02-02T05:05:39.266Z,66.45
2019-02-02T05:08:09.489Z,65.85
2019-02-02T05:10:39.542Z,67.42
2019-02-02T05:13:09.595Z,64.15
2019-02-02T05:15:39.559Z,61.42
2019-02-02T05:18:09.619Z,65.05
2019-02-02T05:20:39.717Z,64.55
2019-02-02T05:23:09.742Z,59.10
2019-02-02T05:25:39.787Z,66.75
2019-02-02T05:28:09.744Z,65.83
2019-02-02T05:30:40.869Z,59.85
2019-02-02T05:33:10.881Z,65.15
2019-02-02T05:35:41.023Z,62.35
2019-02-02T05:38:11.139Z,69.65
2019-02-02T05:40:41.208Z,69.80
2019-02-02T05:43:11.176Z,68.12
2019-02-02T05:45:41.150Z,63.20
2019-02-02T05:48:11.091Z,69.50
2019-02-02T05:50:41.054Z,63.65
2019-02-02T05:53:11.046Z,69.40
2019-02-02T05:55:41.034Z,65.37
2019-02-02T05:58:10.970Z,69.75
2019-02-02T06:00:44.649Z,66.57
2019-02-02T06:03:15.305Z,76.90
2019-02-02T06:05:47.196Z,71.92
2019-02-02T06:08:17.234Z,69.58
2019-02-02T06:10:48.350Z,67.45
2019-02-02T06:13:18.370Z,69.10
2019-02-02T06:15:48.503Z,67.82
2019-02-02T06:18:18.506Z,65.30
2019-02-02T06:20:48.499Z,66.28
2019-02-02T06:23:18.576Z,68.55
2019-02-02T06:25:49.590Z,67.60
2019-02-02T06:28:19.649Z,67.50
2019-02-02T06:30:51.353Z,68.05
2019-02-02T06:33:21.379Z,69.47
2019-02-02T06:35:51.351Z,64.55
2019-02-02T06:38:21.470Z,66.85
2019-02-02T06:40:51.536Z,67.47
2019-02-02T06:43:21.709Z,66.92
2019-02-02T06:45:51.724Z,68.65
2019-02-02T06:48:23.345Z,67.08
2019-02-02T06:50:53.514Z,72.65
2019-02-02T06:53:23.537Z,71.15
2019-02-02T06:55:56.469Z,69.60
2019-02-02T06:58:27.632Z,72.42
2019-02-02T07:00:57.743Z,70.32
2019-02-02T07:03:29.548Z,72.00
2019-02-02T07:06:00.572Z,76.80
2019-02-02T07:08:30.722Z,72.25
2019-02-02T07:11:00.936Z,72.22
2019-02-02T07:13:30.920Z,73.57
2019-02-02T07:16:00.916Z,76.40
2019-02-02T07:18:31.141Z,76.75
2019-02-02T07:21:13.398Z,77.37
2019-02-02T07:23:43.367Z,76.30
2019-02-02T07:26:13.359Z,73.25
2019-02-02T07:28:43.494Z,74.80
2019-02-02T07:31:13.410Z,75.37
2019-02-02T07:33:44.910Z,74.53
2019-02-02T07:36:15.923Z,74.30
2019-02-02T07:38:45.966Z,77.87
2019-02-02T07:41:15.880Z,73.17
2019-02-02T07:43:47.612Z,76.02
2019-02-02T07:46:20.341Z,72.60
2019-02-02T07:48:50.369Z,70.57
2019-02-02T07:51:20.331Z,74.53
2019-02-02T07:53:50.300Z,72.85
2019-02-02T07:56:20.151Z,73.62
2019-02-02T07:58:51.887Z,78.30
2019-02-02T08:01:25.162Z,77.03
2019-02-02T08:03:55.155Z,76.47
2019-02-02T08:06:25.186Z,72.35
2019-02-02T08:08:57.000Z,78.70
2019-02-02T08:11:26.973Z,77.00
2019-02-02T08:13:56.946Z,72.87
2019-02-02T08:16:28.281Z,71.67
2019-02-02T08:18:59.067Z,69.35
2019-02-02T08:21:29.023Z,70.37
2019-02-02T08:23:59.249Z,76.70
2019-02-02T08:26:31.087Z,75.95
2019-02-02T08:29:02.380Z,77.37
2019-02-02T08:31:32.521Z,79.97
2019-02-02T08:34:02.470Z,76.35
2019-02-02T08:36:32.595Z,79.75
2019-02-02T08:39:02.575Z,81.10
2019-02-02T08:41:34.281Z,82.40
2019-02-02T08:44:05.571Z,74.47
2019-02-02T08:46:38.026Z,75.80
2019-02-02T08:49:08.519Z,75.32
2019-02-02T08:51:45.607Z,78.62
2019-02-02T08:54:19.640Z,76.33
2019-02-02T08:56:56.984Z,77.95
2019-02-02T08:59:26.922Z,73.17
2019-02-02T09:01:57.225Z,80.62
2019-02-02T09:04:27.127Z,75.70
2019-02-02T09:06:59.630Z,75.25
2019-02-02T09:09:30.181Z,82.30
2019-02-02T09:12:00.052Z,80.57
2019-02-02T09:14:30.053Z,76.70
2019-02-02T09:17:02.094Z,80.07
2019-02-02T09:19:32.011Z,73.17
2019-02-02T09:22:02.156Z,81.60
2019-02-02T09:24:31.997Z,81.37
2019-02-02T09:27:04.559Z,79.85
2019-02-02T09:29:38.115Z,81.80
2019-02-02T09:32:08.182Z,79.95
2019-02-02T09:34:40.687Z,87.40
2019-02-02T09:37:10.867Z,79.80
2019-02-02T09:39:42.744Z,79.65
2019-02-02T09:42:14.520Z,80.47
2019-02-02T09:44:44.671Z,80.22
2019-02-02T09:47:16.416Z,77.08
2019-02-02T09:49:46.357Z,86.80
2019-02-02T09:52:18.405Z,80.38
2019-02-02T09:54:54.152Z,84.47
2019-02-02T09:57:27.771Z,85.45
2019-02-02T09:59:55.666Z,80.62
2019-02-02T10:02:29.908Z,83.47
2019-02-02T10:04:59.950Z,81.05
2019-02-02T10:07:29.883Z,80.03
2019-02-02T10:09:59.968Z,83.30
2019-02-02T10:12:30.901Z,81.50
2019-02-02T10:15:03.013Z,88.22
2019-02-02T10:17:33.937Z,81.57
2019-02-02T10:20:04.041Z,85.75
2019-02-02T10:22:36.132Z,88.15
2019-02-02T10:25:06.962Z,83.82
2019-02-02T10:27:36.983Z,88.55
2019-02-02T10:30:10.140Z,86.78
2019-02-02T10:32:40.600Z,89.35
2019-02-02T10:35:11.202Z,84.92
2019-02-02T10:37:42.322Z,78.55
2019-02-02T10:40:12.536Z,82.53
2019-02-02T10:42:42.512Z,83.42
2019-02-02T10:45:14.821Z,87.55
2019-02-02T10:47:46.668Z,87.60
2019-02-02T10:50:17.558Z,90.83
2019-02-02T10:52:47.482Z,87.05
2019-02-02T10:55:18.526Z,91.12
2019-02-02T10:57:48.603Z,91.22
2019-02-02T11:00:22.024Z,95.03
2019-02-02T11:02:54.129Z,90.72
2019-02-02T11:05:24.309Z,95.47
2019-02-02T11:07:54.931Z,94.92
2019-02-02T11:10:26.759Z,96.42
2019-02-02T11:12:57.009Z,93.78
2019-02-02T11:15:34.875Z,86.97
2019-02-02T11:18:07.466Z,90.57
2019-02-02T11:20:37.666Z,97.45
2019-02-02T11:23:07.750Z,95.47
2019-02-02T11:25:37.995Z,94.62
2019-02-02T11:28:08.558Z,103.53
2019-02-02T11:30:40.829Z,99.85
2019-02-02T11:33:18.615Z,89.92
2019-02-02T11:35:48.610Z,92.17
2019-02-02T11:38:18.606Z,103.38
2019-02-02T11:40:48.933Z,96.85
2019-02-02T11:43:20.146Z,108.57
2019-02-02T11:45:51.542Z,104.10
2019-02-02T11:48:23.914Z,99.05
2019-02-02T11:50:54.491Z,98.62
2019-02-02T11:53:24.515Z,102.17
2019-02-02T11:55:56.134Z,98.42
2019-02-02T11:58:27.049Z,99.77
2019-02-02T12:01:00.386Z,107.63
2019-02-02T12:03:33.999Z,104.43
2019-02-02T12:06:03.998Z,104.50
2019-02-02T12:08:34.104Z,93.35
2019-02-02T12:11:04.110Z,107.22
2019-02-02T12:13:34.125Z,101.35
2019-02-02T12:16:04.677Z,99.45
2019-02-02T12:18:42.905Z,90.07
2019-02-02T12:21:13.822Z,98.00
2019-02-02T12:23:43.943Z,110.88
2019-02-02T12:26:14.107Z,93.37
2019-02-02T12:28:44.267Z,98.42
2019-02-02T12:31:23.461Z,92.05
2019-02-02T12:33:53.767Z,104.27
2019-02-02T12:36:25.440Z,102.32
2019-02-02T12:38:55.977Z,94.97
2019-02-02T12:41:25.981Z,96.95
2019-02-02T12:43:55.983Z,104.67
2019-02-02T12:46:30.602Z,111.25
2019-02-02T12:49:07.883Z,103.45
2019-02-02T12:51:37.860Z,104.47
2019-02-02T12:54:07.879Z,96.65
2019-02-02T12:56:37.855Z,114.08
2019-02-02T12:59:08.117Z,106.07
2019-02-02T13:01:40.273Z,109.97
2019-02-02T13:04:15.080Z,112.22
2019-02-02T13:06:45.050Z,109.95
2019-02-02T13:09:15.115Z,104.50
2019-02-02T13:11:45.145Z,112.05
2019-02-02T13:14:15.306Z,109.17
2019-02-02T13:16:51.406Z,117.53
2019-02-02T13:19:25.832Z,115.97
2019-02-02T13:21:56.247Z,107.55
2019-02-02T13:24:28.436Z,118.85
2019-02-02T13:26:58.747Z,117.08
2019-02-02T13:29:29.900Z,109.32
2019-02-02T13:32:00.671Z,123.92
2019-02-02T13:34:30.790Z,112.72
2019-02-02T13:37:00.735Z,113.17
2019-02-02T13:39:31.220Z,113.08
2019-02-02T13:42:01.413Z,110.70
2019-02-02T13:44:31.551Z,118.77
2019-02-02T13:47:01.681Z,124.12
2019-02-02T13:49:31.710Z,124.78
2019-02-02T13:52:01.712Z,113.30
2019-02-02T13:54:32.114Z,113.15
2019-02-02T13:57:02.384Z,116.53
2019-02-02T13:59:32.494Z,119.75
2019-02-02T14:02:03.050Z,121.55
2019-02-02T14:04:33.508Z,123.07
2019-02-02T14:07:17.491Z,125.82
2019-02-02T14:09:38.212Z,121.22
2019-02-02T14:12:08.465Z,129.15
2019-02-02T14:14:38.541Z,124.20
2019-02-02T14:17:08.812Z,124.02
2019-02-02T14:19:39.519Z,120.35
2019-02-02T14:22:10.000Z,129.47
2019-02-02T14:24:40.040Z,121.85
2019-02-02T14:27:10.460Z,122.02
2019-02-02T14:29:40.504Z,120.22
2019-02-02T14:32:11.298Z,124.90
2019-02-02T14:34:41.338Z,140.65
2019-02-02T14:37:11.407Z,125.60
2019-02-02T14:39:44.950Z,130.22
2019-02-02T14:42:18.222Z,122.15
2019-02-02T14:44:46.924Z,126.85
2019-02-02T14:47:16.942Z,126.95
2019-02-02T14:49:47.220Z,126.07
2019-02-02T14:52:17.456Z,126.33
2019-02-02T14:54:47.611Z,127.78
2019-02-02T14:57:17.574Z,124.25
2019-02-02T14:59:47.740Z,122.90
2019-02-02T15:02:17.759Z,130.03
2019-02-02T15:04:49.258Z,126.22
2019-02-02T15:10:17.300Z,126.55
2019-02-02T15:12:47.387Z,132.65
2019-02-02T15:15:17.859Z,133.10
2019-02-02T15:17:48.052Z,110.20
2019-02-02T15:20:38.716Z,126.02
2019-02-02T15:23:10.277Z,124.18
2019-02-02T15:25:45.439Z,121.62
2019-02-02T15:28:18.306Z,132.25
2019-02-02T15:30:48.706Z,121.82
2019-02-02T15:33:19.054Z,127.53
2019-02-02T15:35:49.262Z,136.25
2019-02-02T15:38:20.180Z,137.30
2019-02-02T15:40:58.778Z,142.98
2019-02-02T15:43:22.531Z,134.32
2019-02-02T15:45:52.802Z,126.20
2019-02-02T15:48:22.764Z,140.15
2019-02-02T15:50:53.720Z,127.00
2019-02-02T15:53:24.224Z,133.80
2019-02-02T15:55:54.299Z,138.18
2019-02-02T15:58:24.659Z,139.45
2019-02-02T16:00:55.128Z,143.85
2019-02-02T16:03:25.214Z,135.95
2019-02-02T16:05:55.335Z,133.93
2019-02-02T16:08:25.607Z,132.15
2019-02-02T16:10:55.881Z,140.65
2019-02-02T16:13:28.634Z,144.05
2019-02-02T16:15:58.959Z,133.67
2019-02-02T16:18:29.006Z,130.22
2019-02-02T16:20:58.989Z,127.97
2019-02-02T16:23:29.336Z,131.60
2019-02-02T16:25:59.351Z,133.97
2019-02-02T16:28:32.275Z,129.87
2019-02-02T16:31:04.520Z,137.35
2019-02-02T16:33:34.962Z,133.47
2019-02-02T16:36:09.563Z,136.92
2019-02-02T16:38:39.557Z,131.63
2019-02-02T16:41:09.602Z,141.95
2019-02-02T16:43:46.273Z,135.93
2019-02-02T16:46:20.758Z,133.03
2019-02-02T16:48:53.175Z,118.37
2019-02-02T16:51:24.802Z,128.78
2019-02-02T16:53:55.683Z,125.65
2019-02-02T16:56:25.660Z,121.62
2019-02-02T16:58:58.932Z,134.55
2019-02-02T17:01:31.512Z,128.80
2019-02-02T17:04:04.579Z,136.97
2019-02-02T17:06:33.866Z,137.20
2019-02-02T17:09:06.871Z,136.37
2019-02-02T17:11:38.275Z,131.47
2019-02-02T17:14:08.535Z,124.95
2019-02-02T17:16:38.580Z,140.12
2019-02-02T17:19:08.696Z,150.35
2019-02-02T17:21:38.690Z,144.13
2019-02-02T17:24:08.786Z,152.05
2019-02-02T17:26:41.433Z,152.35
2019-02-02T17:29:10.531Z,150.18
2019-02-02T17:31:43.732Z,149.75
2019-02-02T17:34:13.877Z,151.75
2019-02-02T17:36:43.815Z,162.53
2019-02-02T17:39:16.376Z,163.03
2019-02-02T17:41:46.598Z,161.68
2019-02-02T17:44:21.023Z,175.87
2019-02-02T17:46:51.626Z,158.25
2019-02-02T17:49:21.839Z,156.12
2019-02-02T17:51:52.093Z,155.67
2019-02-02T17:54:22.269Z,166.90
2019-02-02T17:56:52.352Z,166.03
2019-02-02T17:59:23.700Z,177.27
2019-02-02T18:01:56.882Z,155.25
2019-02-02T18:04:38.798Z,163.28
2019-02-02T18:07:00.115Z,165.75
2019-02-02T18:09:30.129Z,157.12
2019-02-02T18:12:03.938Z,168.85
2019-02-02T18:14:34.396Z,178.80
2019-02-02T18:17:06.529Z,175.45
2019-02-02T18:19:41.904Z,173.30
2019-02-02T18:22:12.962Z,177.27
2019-02-02T18:24:46.368Z,174.35
2019-02-02T18:27:18.256Z,171.62
2019-02-02T18:29:48.616Z,171.93
2019-02-02T18:32:22.863Z,166.35
2019-02-02T18:34:53.741Z,184.95
2019-02-02T18:37:24.026Z,170.15
2019-02-02T18:39:54.280Z,178.93
2019-02-02T18:42:24.593Z,169.53
2019-02-02T18:44:54.789Z,170.35
2019-02-02T18:47:26.924Z,171.35
2019-02-02T18:50:03.329Z,176.87
2019-02-02T18:52:36.098Z,186.12
2019-02-02T18:55:13.940Z,190.92
2019-02-02T18:57:55.930Z,179.32
2019-02-02T19:00:28.909Z,179.85
2019-02-02T19:02:59.377Z,184.97
2019-02-02T19:05:29.661Z,180.03
2019-02-02T19:08:02.478Z,173.47
2019-02-02T19:10:33.971Z,183.93
2019-02-02T19:16:02.479Z,193.75
2019-02-02T19:18:32.822Z,177.27
2019-02-02T19:21:02.896Z,196.20
2019-02-02T19:23:33.526Z,182.68
2019-02-02T19:26:04.833Z,188.68
2019-02-02T19:28:40.131Z,210.32
2019-02-02T19:31:07.023Z,196.07
2019-02-02T19:33:38.666Z,187.07
2019-02-02T19:36:57.876Z,185.22
2019-02-02T19:39:30.885Z,183.90
2019-02-02T19:42:01.309Z,174.57
2019-02-02T19:44:31.577Z,178.72
2019-02-02T19:47:16.262Z,188.30
2019-02-02T19:49:40.814Z,180.45
2019-02-02T19:52:11.229Z,178.18
2019-02-02T19:54:42.438Z,176.18
2019-02-02T19:57:13.206Z,183.35
2019-02-02T19:59:46.121Z,178.35
2019-02-02T20:02:33.847Z,192.15
2019-02-02T20:05:09.402Z,175.65
2019-02-02T20:07:42.771Z,183.62
2019-02-02T20:10:16.073Z,179.95
2019-02-02T20:12:46.833Z,184.00
2019-02-02T20:15:18.976Z,177.15
2019-02-02T20:17:49.659Z,178.15
2019-02-02T20:20:22.923Z,179.32
2019-02-02T20:22:54.368Z,183.93
2019-02-02T20:25:30.241Z,184.43
2019-02-02T20:28:05.069Z,184.05
2019-02-02T20:30:36.990Z,193.62
2019-02-02T20:33:10.597Z,175.62
2019-02-02T20:35:42.413Z,190.97
2019-02-02T20:38:12.612Z,176.10
2019-02-02T20:40:42.932Z,173.00
2019-02-02T20:43:13.136Z,180.67
2019-02-02T20:45:43.374Z,182.68
2019-02-02T20:48:13.597Z,168.25
2019-02-02T20:50:55.188Z,184.93
2019-02-02T20:53:25.562Z,174.90
2019-02-02T20:55:57.948Z,164.00
2019-02-02T20:58:28.209Z,176.97
2019-02-02T21:00:58.967Z,170.02
2019-02-02T21:03:30.703Z,176.18
2019-02-02T21:06:00.945Z,190.30
2019-02-02T21:08:33.505Z,176.90
2019-02-02T21:11:04.279Z,186.82
2019-02-02T21:13:34.399Z,170.60
2019-02-02T21:16:06.210Z,167.15
2019-02-02T21:18:43.524Z,181.47
2019-02-02T21:21:14.285Z,169.07
2019-02-02T21:23:45.242Z,169.43
2019-02-02T21:26:17.258Z,177.07
2019-02-02T21:28:50.510Z,181.35
2019-02-02T21:31:23.496Z,176.75
2019-02-02T21:33:55.896Z,184.97
2019-02-02T21:36:26.165Z,157.60
2019-02-02T21:38:59.607Z,167.70
2019-02-02T21:41:30.215Z,160.03
2019-02-02T21:44:00.998Z,174.93
2019-02-02T21:46:31.736Z,164.32
2019-02-02T21:49:02.119Z,164.07
2019-02-02T21:51:33.234Z,163.72
2019-02-02T21:54:06.218Z,152.02
2019-02-02T21:56:38.465Z,169.13
2019-02-02T21:59:08.739Z,159.35
2019-02-02T22:01:38.692Z,163.47
2019-02-02T22:04:08.695Z,171.20
2019-02-02T22:06:40.732Z,168.22
2019-02-02T22:09:11.330Z,162.00
2019-02-02T22:11:42.018Z,165.50
2019-02-02T22:14:13.580Z,156.28
2019-02-02T22:16:43.892Z,164.77
2019-02-02T22:19:15.924Z,157.20
2019-02-02T22:21:46.048Z,165.30
2019-02-02T22:24:16.684Z,170.75
2019-02-02T22:26:46.924Z,167.95
2019-02-02T22:29:17.374Z,150.53
2019-02-02T22:31:47.802Z,163.32
2019-02-02T22:34:18.038Z,160.43
2019-02-02T22:36:49.478Z,164.70
2019-02-02T22:39:19.471Z,155.15
2019-02-02T22:41:49.460Z,161.43
2019-02-02T22:44:19.473Z,162.03
2019-02-02T22:46:50.550Z,164.35
2019-02-02T22:49:20.694Z,145.53
2019-02-02T22:51:51.060Z,162.00
2019-02-02T22:54:26.164Z,158.27
2019-02-02T22:56:56.194Z,156.52
2019-02-02T22:59:26.670Z,159.57
2019-02-02T23:02:01.660Z,156.57
2019-02-02T23:05:15.370Z,167.98
2019-02-02T23:07:59.268Z,157.95
2019-02-02T23:11:13.425Z,165.10
2019-02-02T23:14:27.329Z,147.80
2019-02-02T23:16:57.289Z,160.75
2019-02-02T23:19:27.155Z,163.55
2019-02-02T23:21:57.017Z,155.45
2019-02-02T23:24:26.925Z,161.45
2019-02-02T23:26:59.918Z,162.45
2019-02-02T23:29:30.137Z,172.87
2019-02-02T23:32:00.759Z,163.35
2019-02-02T23:34:33.380Z,159.52
2019-02-02T23:37:04.169Z,157.72
2019-02-02T23:39:34.600Z,157.78
2019-02-02T23:42:07.903Z,158.03
2019-02-02T23:44:37.830Z,164.82
2019-02-02T23:47:07.794Z,144.35
2019-02-02T23:49:38.790Z,152.00
2019-02-02T23:52:11.944Z,163.72
2019-02-02T23:54:42.060Z,161.90
2019-02-02T23:57:17.601Z,142.30
2019-02-02T23:59:47.581Z,157.90
